Time;durP1;ratioP1;P1;durP2;ratioP2;P2;SDS_P1;SDS_P2;PMS_P1;PMS_P2;Temp;Humidity;BMP_temperature;BMP_pressure;BME280_temperature;BME280_humidity;BME280_pressure;Samples;Min_cycle;Max_cycle;Signal;HPM_P1;HPM_P2
2023/09/03 00:00:15;;;;;;;4.27;2.70;;;;;;;22.00;60.12;99374.41;6979449;28;20264;-83
2023/09/03 00:03:36;;;;;;;4.47;2.83;;;;;;;22.03;59.88;99361.00;6980604;28;20321;-85
2023/09/03 00:06:58;;;;;;;4.43;2.90;;;;;;;21.39;60.49;99329.19;6980327;28;20358;-84
2023/09/03 00:10:20;;;;;;;4.43;2.93;;;;;;;21.40;60.93;99363.78;6980261;28;20234;-84
2023/09/03 00:13:41;;;;;;;4.53;2.93;;;;;;;21.77;59.43;99347.38;6980246;28;20337;-85
2023/09/03 00:17:05;;;;;;;7.43;2.97;;;;;;;21.78;59.83;99336.09;6979716;28;20271;-86
2023/09/03 00:20:26;;;;;;;5.00;2.77;;;;;;;21.65;60.16;99365.91;6981300;28;20231;-85
2023/09/03 00:23:47;;;;;;;2.90;2.70;;;;;;;21.56;60.81;99334.53;6984688;28;20777;-85
2023/09/03 00:27:09;;;;;;;6.13;2.80;;;;;;;21.53;61.26;99341.38;6982181;28;20238;-85
2023/09/03 00:30:30;;;;;;;3.70;3.03;;;;;;;21.14;61.42;99295.25;6984827;28;20769;-84
2023/09/03 00:33:53;;;;;;;4.13;2.77;;;;;;;21.73;61.33;99369.00;6973109;28;20712;-84
2023/09/03 00:37:15;;;;;;;4.17;3.20;;;;;;;21.83;60.30;99335.31;6982866;28;20640;-85
2023/09/03 00:40:38;;;;;;;6.37;2.93;;;;;;;21.55;61.15;99366.63;6973788;28;20288;-85
2023/09/03 00:44:00;;;;;;;4.37;2.80;;;;;;;21.48;61.57;99373.44;6971036;28;20245;-86
2023/09/03 00:47:22;;;;;;;7.60;3.47;;;;;;;21.38;61.84;99376.94;6969191;28;20206;-85
2023/09/03 00:50:46;;;;;;;5.80;2.87;;;;;;;21.72;61.21;99375.59;6969972;28;20613;-85
2023/09/03 00:54:08;;;;;;;7.40;3.47;;;;;;;22.00;59.59;99375.25;6970000;28;20992;-86
2023/09/03 00:57:29;;;;;;;5.13;2.77;;;;;;;21.92;59.63;99367.50;6968843;28;20643;-86
2023/09/03 01:00:52;;;;;;;3.60;2.80;;;;;;;21.59;59.81;99348.56;6968540;28;20241;-85
2023/09/03 01:04:14;;;;;;;3.13;2.83;;;;;;;21.38;60.18;99360.47;6967791;28;20372;-86
2023/09/03 01:07:37;;;;;;;4.03;2.57;;;;;;;21.07;60.96;99304.75;6968246;28;20255;-86
2023/09/03 01:11:07;;;;;;;4.50;2.90;;;;;;;21.48;61.17;99357.00;6968056;28;20308;-86
2023/09/03 01:14:34;;;;;;;8.33;2.80;;;;;;;21.27;61.24;99362.56;6968863;28;20637;-85
2023/09/03 01:17:59;;;;;;;5.77;3.20;;;;;;;21.46;61.33;99383.84;6968333;28;20219;-85
2023/09/03 01:21:36;;;;;;;3.30;3.00;;;;;;;20.96;61.00;99300.25;6973039;28;20219;-86
2023/09/03 01:25:13;;;;;;;5.07;2.87;;;;;;;21.63;60.10;99360.69;6971943;28;20230;-85
2023/09/03 01:28:39;;;;;;;5.57;2.90;;;;;;;21.24;60.97;99385.84;6962186;28;20202;-86
2023/09/03 01:32:02;;;;;;;3.33;3.00;;;;;;;21.06;62.50;99399.94;6969112;28;20299;-86
2023/09/03 01:35:23;;;;;;;5.37;2.80;;;;;;;21.42;61.66;99386.28;6969051;28;20329;-85
2023/09/03 01:38:45;;;;;;;7.20;3.90;;;;;;;21.59;60.95;99397.97;6968803;28;20694;-86
2023/09/03 01:42:06;;;;;;;6.07;2.93;;;;;;;21.64;60.57;99397.16;6968756;28;20264;-85
2023/09/03 01:45:35;;;;;;;4.23;2.30;;;;;;;21.56;60.65;99412.22;6968600;28;20329;-86
2023/09/03 01:49:04;;;;;;;4.13;2.60;;;;;;;21.28;61.19;99401.53;6968738;28;20271;-86
2023/09/03 01:52:29;;;;;;;6.70;3.07;;;;;;;21.11;61.28;99404.63;6969182;28;20243;-86
2023/09/03 01:55:57;;;;;;;3.00;2.70;;;;;;;21.35;61.18;99412.25;6968262;28;20356;-86
2023/09/03 01:59:20;;;;;;;3.80;2.50;;;;;;;21.38;60.88;99403.53;6968429;28;20232;-86
2023/09/03 02:02:45;;;;;;;4.13;3.17;;;;;;;21.08;61.27;99418.84;6967606;28;20313;-85
2023/09/03 02:06:06;;;;;;;5.60;3.10;;;;;;;21.01;61.20;99383.41;6970626;28;20256;-86
2023/09/03 02:09:28;;;;;;;7.97;3.07;;;;;;;20.86;62.34;99418.84;6996450;28;20258;-85
2023/09/03 02:12:49;;;;;;;4.90;3.03;;;;;;;21.02;62.19;99439.91;6996051;28;20237;-86
2023/09/03 02:16:11;;;;;;;4.40;2.80;;;;;;;21.22;60.83;99423.66;6995511;28;20367;-85
2023/09/03 02:19:34;;;;;;;6.20;2.90;;;;;;;21.13;60.63;99435.34;6996554;28;20260;-85
2023/09/03 02:22:55;;;;;;;3.40;3.03;;;;;;;21.13;61.13;99431.53;6999078;28;20668;-85
2023/09/03 02:26:18;;;;;;;3.37;3.03;;;;;;;20.91;61.30;99413.44;7000339;28;20316;-86
2023/09/03 02:29:40;;;;;;;4.13;2.83;;;;;;;21.13;61.30;99440.84;7001074;28;20221;-85
2023/09/03 02:33:01;;;;;;;4.63;3.00;;;;;;;21.04;60.76;99421.28;7001022;28;20202;-86
2023/09/03 02:36:24;;;;;;;5.10;2.90;;;;;;;21.20;60.78;99439.56;7000250;28;20303;-86
2023/09/03 02:39:45;;;;;;;3.03;2.70;;;;;;;21.04;61.02;99436.91;7000471;28;20636;-85
2023/09/03 02:43:08;;;;;;;7.40;3.20;;;;;;;20.54;61.80;99422.53;7000109;28;20324;-86
2023/09/03 02:46:29;;;;;;;5.87;3.00;;;;;;;20.77;61.65;99412.97;6974992;28;20828;-85
2023/09/03 02:49:51;;;;;;;5.20;3.00;;;;;;;20.72;62.24;99441.41;6989735;28;20239;-86
2023/09/03 02:53:14;;;;;;;6.30;2.77;;;;;;;20.79;62.22;99448.38;7000141;28;20209;-85
2023/09/03 02:56:35;;;;;;;9.27;2.63;;;;;;;20.82;62.36;99453.31;6999706;28;20275;-86
2023/09/03 02:59:57;;;;;;;4.30;2.90;;;;;;;20.95;61.85;99454.88;6999476;28;20343;-86
2023/09/03 03:03:18;;;;;;;7.00;3.20;;;;;;;20.45;60.73;99361.88;6984731;28;20219;-86
2023/09/03 03:06:40;;;;;;;4.80;3.40;;;;;;;20.95;60.52;99465.84;6972964;28;20206;-85
2023/09/03 03:10:03;;;;;;;6.93;3.17;;;;;;;20.65;61.41;99443.50;6972125;28;20214;-85
2023/09/03 03:13:25;;;;;;;6.73;4.23;;;;;;;20.67;61.33;99446.81;6972175;28;20297;-85
2023/09/03 03:16:46;;;;;;;5.70;3.20;;;;;;;20.82;61.38;99458.00;6971629;28;20207;-86
2023/09/03 03:20:09;;;;;;;5.57;2.97;;;;;;;20.83;61.10;99459.63;6971978;28;20222;-85
2023/09/03 03:23:30;;;;;;;4.63;3.00;;;;;;;20.81;61.11;99456.34;6971567;28;20232;-85
2023/09/03 03:26:53;;;;;;;5.20;3.30;;;;;;;20.48;61.49;99437.25;6971060;28;20199;-86
2023/09/03 03:30:15;;;;;;;4.00;3.30;;;;;;;20.71;61.64;99454.31;6945738;28;20627;-86
2023/09/03 03:33:37;;;;;;;4.33;3.23;;;;;;;20.72;61.77;99460.59;6967360;28;20293;-86
2023/09/03 03:36:58;;;;;;;4.70;3.40;;;;;;;20.57;62.06;99466.69;6971148;28;20345;-85
2023/09/03 03:40:20;;;;;;;3.63;3.30;;;;;;;20.43;62.07;99472.78;6971579;28;20357;-86
2023/09/03 03:43:44;;;;;;;8.50;3.23;;;;;;;20.36;62.74;99483.09;6970952;28;20317;-86
2023/09/03 03:47:06;;;;;;;4.07;2.83;;;;;;;20.49;62.58;99480.84;6971124;28;20206;-86
2023/09/03 03:50:30;;;;;;;5.90;4.30;;;;;;;20.87;61.12;99469.03;6971187;28;20297;-84
2023/09/03 03:53:51;;;;;;;5.07;3.00;;;;;;;20.73;60.50;99467.72;6970639;28;20313;-86
2023/09/03 03:57:13;;;;;;;5.23;3.20;;;;;;;20.25;61.57;99468.44;6970322;28;20298;-85
2023/09/03 04:00:37;;;;;;;3.90;3.20;;;;;;;20.09;62.83;99472.00;6970144;28;20294;-85
2023/09/03 04:03:58;;;;;;;3.30;3.00;;;;;;;20.04;63.40;99490.25;6970524;28;20612;-84
2023/09/03 04:07:20;;;;;;;4.47;3.13;;;;;;;19.85;63.08;99417.66;6970100;28;20237;-85
2023/09/03 04:10:41;;;;;;;4.43;3.10;;;;;;;20.23;62.69;99502.63;6970337;28;20211;-85
2023/09/03 04:14:03;;;;;;;5.40;3.47;;;;;;;20.09;63.31;99506.75;6970692;28;20636;-85
2023/09/03 04:17:26;;;;;;;3.40;3.03;;;;;;;19.81;63.23;99449.34;6969685;28;20297;-86
2023/09/03 04:20:47;;;;;;;3.80;3.20;;;;;;;20.31;62.98;99505.78;6970562;28;20217;-85
2023/09/03 04:24:09;;;;;;;5.90;3.50;;;;;;;20.62;62.12;99509.78;6970054;28;20246;-86
2023/09/03 04:27:30;;;;;;;4.50;3.10;;;;;;;20.84;61.35;99508.75;6969736;28;20217;-86
2023/09/03 04:30:53;;;;;;;6.20;3.30;;;;;;;20.75;61.47;99502.03;6970106;28;20229;-86
2023/09/03 04:34:16;;;;;;;3.67;2.77;;;;;;;20.51;61.87;99508.00;6969738;28;20348;-85
2023/09/03 04:37:37;;;;;;;5.00;3.27;;;;;;;20.33;61.77;99506.34;6969111;28;20425;-85
2023/09/03 04:41:03;;;;;;;5.30;3.00;;;;;;;19.95;62.78;99475.31;6969989;28;20241;-85
2023/09/03 04:44:24;;;;;;;6.07;3.30;;;;;;;20.48;62.35;99506.59;6971417;28;20231;-88
2023/09/03 04:47:46;;;;;;;4.17;3.20;;;;;;;20.36;62.17;99516.81;6969937;28;20207;-84
2023/09/03 04:51:09;;;;;;;3.57;3.27;;;;;;;19.99;62.80;99492.91;6976878;28;20199;-85
2023/09/03 04:54:31;;;;;;;4.23;3.30;;;;;;;20.21;62.66;99530.25;6944509;28;20231;-85
2023/09/03 04:57:52;;;;;;;5.13;3.30;;;;;;;20.09;63.11;99531.41;6959756;28;20210;-85
2023/09/03 05:01:15;;;;;;;4.10;2.83;;;;;;;19.91;63.64;99526.13;6969675;28;20290;-83
2023/09/03 05:04:36;;;;;;;4.30;3.40;;;;;;;19.95;63.77;99521.84;6969652;28;20234;-83
2023/09/03 05:07:59;;;;;;;4.50;3.50;;;;;;;20.03;64.22;99540.59;6975288;28;20688;-83
2023/09/03 05:11:21;;;;;;;4.77;3.17;;;;;;;20.09;64.17;99531.41;6973558;28;20676;-85
2023/09/03 05:14:42;;;;;;;7.20;3.40;;;;;;;20.19;63.86;99540.63;6973491;28;20687;-87
2023/09/03 05:18:04;;;;;;;5.03;3.13;;;;;;;20.45;63.25;99564.59;6980549;28;20279;-85
2023/09/03 05:21:25;;;;;;;5.43;3.40;;;;;;;20.60;63.00;99564.00;6978047;28;20236;-86
2023/09/03 05:24:48;;;;;;;3.47;3.17;;;;;;;20.80;62.65;99573.38;6969782;28;20282;-85
2023/09/03 05:28:10;;;;;;;3.47;3.17;;;;;;;20.86;62.73;99579.75;6966438;28;20214;-84
2023/09/03 05:31:31;;;;;;;4.53;3.60;;;;;;;20.73;62.75;99571.88;6962569;28;20289;-85
2023/09/03 05:34:53;;;;;;;4.63;3.97;;;;;;;21.03;62.68;99575.91;6972377;28;20264;-83
2023/09/03 05:38:14;;;;;;;4.70;3.17;;;;;;;21.40;62.17;99566.81;6970763;28;20206;-83
2023/09/03 05:41:38;;;;;;;5.60;3.17;;;;;;;21.57;61.73;99558.47;6971585;28;20685;-83
2023/09/03 05:44:59;;;;;;;3.20;2.90;;;;;;;21.76;61.12;99552.41;6971481;28;20696;-83
2023/09/03 05:48:21;;;;;;;4.63;3.17;;;;;;;21.75;60.82;99553.50;6970947;28;20585;-82
2023/09/03 05:51:42;;;;;;;4.23;3.00;;;;;;;21.78;60.68;99552.16;6979765;28;20238;-82
2023/09/03 05:55:05;;;;;;;5.07;3.00;;;;;;;21.82;61.21;99547.78;6960372;28;20301;-86
2023/09/03 05:58:27;;;;;;;3.80;3.20;;;;;;;22.03;59.56;99553.25;6976030;28;20204;-82
2023/09/03 06:01:49;;;;;;;3.10;2.80;;;;;;;22.00;60.13;99552.91;6974143;28;21331;-86
2023/09/03 06:05:11;;;;;;;3.77;3.03;;;;;;;22.03;59.38;99552.41;6969782;28;20265;-84
2023/09/03 06:08:34;;;;;;;4.57;3.63;;;;;;;21.28;61.12;99486.56;6972166;28;20206;-84
2023/09/03 06:11:56;;;;;;;4.90;3.13;;;;;;;21.90;60.72;99561.06;6977711;28;20302;-83
2023/09/03 06:15:19;;;;;;;5.77;3.77;;;;;;;21.90;61.10;99572.88;6978503;28;20226;-83
2023/09/03 06:18:40;;;;;;;3.87;3.53;;;;;;;22.05;61.03;99574.94;6998759;28;20241;-83
2023/09/03 06:22:01;;;;;;;4.03;3.63;;;;;;;22.26;59.93;99574.03;6984827;28;20346;-83
2023/09/03 06:25:23;;;;;;;8.60;3.80;;;;;;;22.24;59.62;99543.25;6974618;28;20364;-83
2023/09/03 06:28:45;;;;;;;4.43;3.60;;;;;;;22.52;59.89;99576.75;6973473;28;20239;-82
2023/09/03 06:32:10;;;;;;;4.67;3.23;;;;;;;22.48;60.04;99580.31;6965696;28;20639;-83
2023/09/03 06:35:32;;;;;;;4.27;3.60;;;;;;;22.86;59.05;99582.78;6962370;28;20243;-83
2023/09/03 06:38:53;;;;;;;4.60;3.43;;;;;;;23.31;58.17;99594.88;6972066;28;20303;-83
2023/09/03 06:42:15;;;;;;;3.70;3.30;;;;;;;23.20;58.41;99598.69;6974076;28;20617;-83
2023/09/03 06:45:36;;;;;;;4.80;3.73;;;;;;;23.36;57.79;99594.09;6973462;28;20236;-83
2023/09/03 06:48:59;;;;;;;4.03;3.63;;;;;;;23.11;58.87;99603.00;6973673;28;20299;-82
2023/09/03 06:52:23;;;;;;;3.63;3.30;;;;;;;23.10;59.26;99620.63;6946438;28;20624;-82
2023/09/03 06:55:45;;;;;;;4.07;3.67;;;;;;;22.98;58.63;99569.66;6967666;28;20231;-82
2023/09/03 06:59:07;;;;;;;4.93;3.87;;;;;;;23.29;58.06;99605.34;6987961;28;20653;-82
2023/09/03 07:02:28;;;;;;;5.57;3.90;;;;;;;23.51;58.04;99633.53;6983337;28;20676;-82
2023/09/03 07:05:51;;;;;;;5.73;3.70;;;;;;;23.84;57.56;99640.53;6968142;28;20234;-82
2023/09/03 07:09:13;;;;;;;4.97;3.37;;;;;;;23.82;56.63;99576.63;6964493;28;20283;-83
2023/09/03 07:12:34;;;;;;;5.17;3.70;;;;;;;24.15;56.68;99637.63;6976634;28;20224;-83
2023/09/03 07:15:56;;;;;;;4.30;3.70;;;;;;;24.29;55.75;99621.38;6972996;28;20277;-83
2023/09/03 07:19:17;;;;;;;4.43;3.37;;;;;;;24.26;56.67;99632.97;6975322;28;20216;-83
2023/09/03 07:22:41;;;;;;;4.33;3.60;;;;;;;23.95;56.09;99581.66;6978234;28;20227;-83
2023/09/03 07:26:04;;;;;;;4.80;3.60;;;;;;;24.35;55.99;99651.44;6954140;28;20618;-83
2023/09/03 07:29:26;;;;;;;4.30;3.90;;;;;;;24.13;56.88;99652.78;6970163;28;20214;-83
2023/09/03 07:32:48;;;;;;;5.23;3.97;;;;;;;24.10;57.37;99656.06;6983249;28;20287;-84
2023/09/03 07:36:10;;;;;;;4.43;3.40;;;;;;;24.41;56.56;99650.34;6981202;28;20634;-83
2023/09/03 07:39:34;;;;;;;4.50;3.43;;;;;;;25.10;54.42;99659.75;6979438;28;20556;-81
2023/09/03 07:42:55;;;;;;;4.60;3.90;;;;;;;25.62;53.44;99674.00;6952740;28;20265;-83
2023/09/03 07:46:17;;;;;;;3.63;3.03;;;;;;;25.69;53.41;99657.94;6959397;28;20244;-84
2023/09/03 07:49:38;;;;;;;6.00;3.97;;;;;;;25.82;52.66;99649.03;6977721;28;20270;-84
2023/09/03 07:53:01;;;;;;;5.23;4.23;;;;;;;26.38;52.34;99657.88;6979521;28;20211;-83
2023/09/03 07:56:24;;;;;;;3.87;3.30;;;;;;;26.66;50.19;99663.50;6961491;28;20227;-84
2023/09/03 07:59:45;;;;;;;3.70;3.30;;;;;;;26.20;52.31;99669.63;6952623;28;20264;-82
2023/09/03 08:03:07;;;;;;;3.60;3.30;;;;;;;26.20;52.19;99677.91;6951980;28;20280;-84
2023/09/03 08:06:29;;;;;;;3.67;3.30;;;;;;;26.03;52.09;99683.81;6965938;28;20227;-81
2023/09/03 08:09:50;;;;;;;4.57;3.40;;;;;;;26.74;50.90;99689.75;6950055;28;20258;-82
2023/09/03 08:13:13;;;;;;;4.80;3.40;;;;;;;27.12;50.70;99681.38;6955499;28;20275;-83
2023/09/03 08:16:34;;;;;;;5.47;3.50;;;;;;;26.75;51.10;99664.56;6978710;28;20339;-84
2023/09/03 08:19:56;;;;;;;4.60;3.57;;;;;;;27.82;47.02;99666.81;6971145;28;20203;-83
2023/09/03 08:23:18;;;;;;;3.80;3.47;;;;;;;27.42;47.05;99617.38;6971495;28;20242;-84
2023/09/03 08:26:40;;;;;;;4.17;3.77;;;;;;;27.92;46.63;99688.03;6970892;28;20218;-84
2023/09/03 08:30:04;;;;;;;5.53;3.70;;;;;;;28.18;46.65;99672.72;6971850;28;20302;-84
2023/09/03 08:33:25;;;;;;;4.97;3.90;;;;;;;28.13;46.06;99678.34;6972712;28;20217;-83
2023/09/03 08:36:47;;;;;;;5.50;4.23;;;;;;;28.00;47.23;99670.72;6971130;28;20194;-84
2023/09/03 08:40:10;;;;;;;4.57;4.03;;;;;;;27.99;46.80;99675.47;6971409;28;20305;-84
2023/09/03 08:43:31;;;;;;;6.03;4.60;;;;;;;26.92;48.76;99611.53;6970885;28;20802;-84
2023/09/03 08:47:00;;;;;;;4.73;4.20;;;;;;;27.75;47.74;99665.47;6972626;28;20191;-84
2023/09/03 08:50:23;;;;;;;5.13;4.13;;;;;;;26.78;50.22;99683.34;6971680;28;20658;-84
2023/09/03 08:53:45;;;;;;;5.17;4.00;;;;;;;27.11;50.50;99688.03;6970804;28;20299;-85
2023/09/03 08:57:09;;;;;;;4.90;4.47;;;;;;;27.95;47.94;99684.69;6970550;28;20218;-84
2023/09/03 09:00:32;;;;;;;5.60;4.40;;;;;;;27.51;48.16;99635.03;6955357;28;20208;-84
2023/09/03 09:03:56;;;;;;;5.33;4.00;;;;;;;28.58;47.42;99691.56;6943307;28;20717;-85
2023/09/03 09:07:18;;;;;;;5.27;4.07;;;;;;;29.52;44.31;99694.69;6942861;28;20341;-84
2023/09/03 09:10:47;;;;;;;5.27;4.00;;;;;;;29.40;44.96;99691.56;6943654;28;20698;-84
2023/09/03 09:14:27;;;;;;;3.93;3.63;;;;;;;29.19;46.07;99703.38;6960014;28;20264;-85
2023/09/03 09:17:49;;;;;;;4.30;3.77;;;;;;;29.33;44.81;99704.22;6951798;28;20242;-84
2023/09/03 09:21:12;;;;;;;4.80;3.90;;;;;;;29.27;45.17;99694.31;6969289;28;20204;-84
2023/09/03 09:24:41;;;;;;;3.93;3.47;;;;;;;29.75;45.45;99717.91;6970345;28;20763;-85
2023/09/03 09:28:10;;;;;;;4.37;3.40;;;;;;;29.06;45.54;99710.53;6969448;28;20788;-85
2023/09/03 09:31:33;;;;;;;5.40;3.30;;;;;;;29.77;44.67;99698.97;6972823;28;20216;-84
2023/09/03 09:34:54;;;;;;;4.83;3.50;;;;;;;29.58;44.71;99703.78;6976653;28;20235;-83
2023/09/03 09:38:18;;;;;;;5.70;3.80;;;;;;;30.37;43.72;99717.97;6980448;28;20292;-85
2023/09/03 09:41:40;;;;;;;5.23;3.67;;;;;;;29.84;44.02;99705.75;6980517;28;20201;-83
2023/09/03 09:45:02;;;;;;;6.50;3.60;;;;;;;30.56;43.18;99709.50;6976476;28;20312;-84
2023/09/03 09:48:24;;;;;;;3.53;3.23;;;;;;;30.99;42.68;99722.69;6981211;28;20217;-84
2023/09/03 09:51:52;;;;;;;3.33;3.03;;;;;;;30.55;43.70;99703.09;6981614;28;20693;-85
2023/09/03 09:55:19;;;;;;;4.43;3.20;;;;;;;30.95;42.08;99665.13;6973293;28;20231;-85
2023/09/03 09:58:41;;;;;;;4.63;3.60;;;;;;;31.06;42.63;99700.75;6979469;28;20201;-87
2023/09/03 10:02:12;;;;;;;6.07;3.00;;;;;;;31.14;41.73;99683.28;6982210;28;20223;-85
2023/09/03 10:05:34;;;;;;;4.87;3.13;;;;;;;30.80;43.04;99699.75;6962941;28;20246;-85
2023/09/03 10:08:56;;;;;;;3.20;2.90;;;;;;;30.28;42.68;99680.91;6974900;28;21011;-85
2023/09/03 10:12:19;;;;;;;4.30;2.80;;;;;;;31.15;41.90;99706.41;6978291;28;20295;-85
2023/09/03 10:15:42;;;;;;;3.80;3.00;;;;;;;30.46;42.32;99705.00;6980014;28;20237;-85
2023/09/03 10:19:06;;;;;;;3.20;2.40;;;;;;;31.13;41.79;99691.97;6982105;28;20218;-84
2023/09/03 10:22:27;;;;;;;3.13;2.77;;;;;;;31.26;41.59;99691.91;6985500;28;20211;-85
2023/09/03 10:25:49;;;;;;;2.97;2.70;;;;;;;31.99;39.92;99685.72;6983071;28;20312;-85
2023/09/03 10:29:14;;;;;;;2.90;2.60;;;;;;;32.38;38.29;99678.09;6978983;28;20197;-85
2023/09/03 10:32:36;;;;;;;2.50;2.30;;;;;;;31.86;39.28;99690.28;6980185;28;20210;-84
2023/09/03 10:36:17;;;;;;;2.73;2.50;;;;;;;32.27;38.92;99676.78;6978188;28;20300;-84
2023/09/03 10:39:40;;;;;;;2.60;2.40;;;;;;;31.74;38.96;99670.53;6965924;28;20354;-83
2023/09/03 10:43:26;;;;;;;2.90;2.70;;;;;;;31.99;38.81;99680.13;6973468;28;20208;-85
2023/09/03 10:47:01;;;;;;;3.50;2.43;;;;;;;30.66;40.64;99687.84;6975940;28;20302;-84
2023/09/03 10:50:41;;;;;;;2.23;2.03;;;;;;;31.28;39.46;99647.00;6978273;28;20732;-84
2023/09/03 10:54:18;;;;;;;5.93;5.03;;;;;;;32.20;37.81;99681.97;6984280;28;20283;-84
2023/09/03 10:57:40;;;;;;;5.47;4.83;;;;;;;32.00;37.48;99651.06;6975671;28;20294;-85
2023/09/03 11:01:18;;;;;;;4.23;3.50;;;;;;;31.84;38.57;99673.03;6973843;28;20283;-85
2023/09/03 11:05:14;;;;;;;2.40;2.20;;;;;;;32.57;36.93;99673.03;6972229;28;20232;-86
2023/09/03 11:08:37;;;;;;;2.10;2.00;;;;;;;32.61;35.99;99622.94;6972416;28;20293;-84
2023/09/03 11:12:01;;;;;;;2.33;2.13;;;;;;;32.50;37.28;99653.16;6966904;28;20257;-84
2023/09/03 11:15:23;;;;;;;2.57;1.93;;;;;;;31.62;37.76;99656.34;6977091;28;20224;-83
2023/09/03 11:18:49;;;;;;;2.80;2.10;;;;;;;31.37;37.54;99569.81;6962141;28;20297;-85
2023/09/03 11:22:12;;;;;;;2.23;2.00;;;;;;;32.92;35.90;99652.34;6960120;28;20223;-85
2023/09/03 11:25:34;;;;;;;2.63;1.73;;;;;;;32.95;35.41;99673.22;6972961;28;20747;-85
2023/09/03 11:28:56;;;;;;;2.70;1.93;;;;;;;32.11;35.88;99588.22;6971359;28;20201;-85
2023/09/03 11:32:18;;;;;;;1.80;1.70;;;;;;;32.01;36.59;99655.53;6976595;28;20207;-86
2023/09/03 11:35:42;;;;;;;2.17;1.83;;;;;;;31.90;36.94;99663.34;6978053;28;20224;-86
2023/09/03 11:39:14;;;;;;;2.90;1.90;;;;;;;32.51;36.61;99649.22;6975342;28;20216;-86
2023/09/03 11:42:36;;;;;;;4.73;1.90;;;;;;;31.18;37.08;99652.81;6971809;28;20215;-85
2023/09/03 11:46:00;;;;;;;2.00;1.80;;;;;;;31.00;37.89;99645.47;6971717;28;20281;-86
2023/09/03 11:49:22;;;;;;;1.50;1.40;;;;;;;31.19;37.58;99655.31;6979891;28;20206;-85
2023/09/03 11:52:48;;;;;;;2.43;1.80;;;;;;;31.18;36.96;99656.47;6976408;28;20239;-85
2023/09/03 11:56:13;;;;;;;3.23;1.63;;;;;;;31.40;37.01;99650.00;6974852;28;20262;-85
2023/09/03 11:59:34;;;;;;;2.00;1.63;;;;;;;31.78;35.74;99670.72;6963600;28;20274;-85
2023/09/03 12:02:58;;;;;;;1.77;1.67;;;;;;;32.62;35.42;99660.88;6976274;28;20299;-84
2023/09/03 12:06:20;;;;;;;2.13;1.90;;;;;;;31.34;37.87;99654.06;6979673;28;20238;-86
2023/09/03 12:09:42;;;;;;;1.53;1.40;;;;;;;31.72;36.95;99656.09;6972663;28;20196;-85
2023/09/03 12:13:05;;;;;;;1.70;1.60;;;;;;;30.77;37.95;99669.75;6970465;28;20217;-86
2023/09/03 12:16:28;;;;;;;3.10;1.50;;;;;;;30.38;39.08;99682.63;6969476;28;20266;-85
2023/09/03 12:19:50;;;;;;;1.50;1.40;;;;;;;31.36;36.76;99674.13;6968787;28;20214;-85
2023/09/03 12:23:14;;;;;;;1.20;1.17;;;;;;;31.74;35.35;99678.91;6965151;28;20210;-82
2023/09/03 12:26:36;;;;;;;1.70;1.60;;;;;;;31.48;36.56;99674.34;6962103;28;20322;-85
2023/09/03 12:30:05;;;;;;;3.43;1.73;;;;;;;32.01;33.68;99630.41;6975938;28;20724;-84
2023/09/03 12:33:27;;;;;;;1.40;1.30;;;;;;;32.76;32.05;99653.16;6970538;28;20204;-84
2023/09/03 12:36:56;;;;;;;2.17;1.50;;;;;;;32.72;34.19;99663.34;6965864;28;20557;-84
2023/09/03 12:40:18;;;;;;;1.73;1.63;;;;;;;33.04;33.98;99658.09;6951663;28;20209;-85
2023/09/03 12:43:40;;;;;;;1.93;1.77;;;;;;;32.86;33.56;99659.25;6947263;28;20949;-84
2023/09/03 12:47:04;;;;;;;1.67;1.57;;;;;;;32.02;35.77;99644.03;6969040;28;20225;-84
2023/09/03 12:50:25;;;;;;;1.90;1.63;;;;;;;32.70;34.14;99632.94;6968511;28;20220;-85
2023/09/03 12:53:47;;;;;;;1.70;1.60;;;;;;;32.47;34.28;99648.22;6969160;28;20225;-84
2023/09/03 12:57:09;;;;;;;3.20;1.70;;;;;;;32.16;34.36;99643.88;6962741;28;20209;-85
2023/09/03 13:00:30;;;;;;;2.43;1.60;;;;;;;31.81;34.51;99648.56;6967795;28;20209;-85
2023/09/03 13:03:53;;;;;;;1.77;1.67;;;;;;;31.90;33.56;99629.88;6968664;28;20325;-83
2023/09/03 13:07:14;;;;;;;1.80;1.70;;;;;;;33.03;32.59;99625.72;6967739;28;20342;-85
2023/09/03 13:10:36;;;;;;;1.70;1.60;;;;;;;32.64;33.67;99631.47;6966110;28;20607;-84
2023/09/03 13:13:59;;;;;;;2.30;1.37;;;;;;;32.83;34.18;99654.31;6963967;28;20783;-85
2023/09/03 13:17:20;;;;;;;1.70;1.60;;;;;;;32.55;34.62;99646.59;6969105;28;20232;-83
2023/09/03 13:20:44;;;;;;;2.40;2.20;;;;;;;32.45;34.58;99658.09;6968458;28;20257;-84
2023/09/03 13:24:06;;;;;;;2.90;1.80;;;;;;;31.49;35.50;99660.06;6968677;28;20612;-83
2023/09/03 13:27:28;;;;;;;1.67;1.57;;;;;;;31.83;36.02;99634.31;6967682;28;20228;-84
2023/09/03 13:30:49;;;;;;;1.60;1.50;;;;;;;31.69;36.68;99655.88;6968625;28;20688;-84
2023/09/03 13:34:11;;;;;;;1.53;1.43;;;;;;;31.18;36.00;99539.41;6962458;28;20678;-83
2023/09/03 13:37:34;;;;;;;1.47;1.37;;;;;;;32.04;36.20;99638.97;6969298;28;20204;-84
2023/09/03 13:40:57;;;;;;;3.63;1.63;;;;;;;32.09;36.30;99651.94;6969503;28;20809;-84
2023/09/03 13:44:18;;;;;;;1.67;1.57;;;;;;;32.00;36.84;99651.91;6971065;28;20290;-83
2023/09/03 13:47:40;;;;;;;2.47;1.67;;;;;;;31.96;36.60;99650.91;6969441;28;20262;-84
2023/09/03 13:51:09;;;;;;;1.60;1.50;;;;;;;32.05;36.79;99646.19;6958376;28;20300;-84
2023/09/03 13:54:32;;;;;;;1.50;1.40;;;;;;;32.61;35.49;99640.50;6965651;28;20237;-84
2023/09/03 13:57:54;;;;;;;1.47;1.37;;;;;;;32.05;35.87;99634.19;6956805;28;20674;-84
2023/09/03 14:01:16;;;;;;;2.57;1.63;;;;;;;31.86;35.98;99628.91;6970057;28;20799;-84
2023/09/03 14:04:38;;;;;;;2.03;1.50;;;;;;;30.94;36.48;99561.22;6969515;28;20228;-84
2023/09/03 14:08:00;;;;;;;1.37;1.27;;;;;;;30.87;37.06;99646.38;6967637;28;20227;-83
2023/09/03 14:11:23;;;;;;;1.40;1.30;;;;;;;31.04;36.72;99610.28;6967883;28;20351;-84
2023/09/03 14:14:44;;;;;;;1.60;1.50;;;;;;;30.82;36.63;99593.59;6968539;28;20238;-84
2023/09/03 14:18:06;;;;;;;1.60;1.50;;;;;;;30.95;37.07;99640.06;6971000;28;20300;-84
2023/09/03 14:21:27;;;;;;;3.03;1.40;;;;;;;30.92;36.74;99632.31;6972942;28;20441;-84
2023/09/03 14:24:49;;;;;;;1.63;1.50;;;;;;;31.27;36.17;99629.47;6976928;28;20932;-84
2023/09/03 14:28:12;;;;;;;1.87;1.53;;;;;;;31.89;34.79;99639.41;6987190;28;20630;-85
2023/09/03 14:31:33;;;;;;;1.70;1.17;;;;;;;32.07;34.07;99629.13;6973303;28;20279;-85
2023/09/03 14:34:55;;;;;;;1.40;1.30;;;;;;;31.40;36.03;99634.13;6980746;28;20322;-84
2023/09/03 14:38:16;;;;;;;2.27;1.43;;;;;;;31.80;35.86;99638.56;6966920;28;20234;-86
2023/09/03 14:41:38;;;;;;;1.80;1.40;;;;;;;31.63;36.43;99646.84;6976563;28;20341;-86
2023/09/03 14:45:02;;;;;;;1.80;1.70;;;;;;;31.22;36.56;99639.91;6976993;28;20269;-84
2023/09/03 14:48:23;;;;;;;1.63;1.53;;;;;;;31.37;36.62;99640.31;6974711;28;20656;-83
2023/09/03 14:51:45;;;;;;;2.00;1.80;;;;;;;31.38;36.04;99641.16;6976976;28;20268;-85
2023/09/03 14:55:07;;;;;;;1.60;1.50;;;;;;;31.14;34.93;99527.22;6977369;28;20328;-84
2023/09/03 14:58:28;;;;;;;1.40;1.30;;;;;;;31.62;35.14;99634.06;6975338;28;20312;-84
2023/09/03 15:01:51;;;;;;;2.83;1.60;;;;;;;30.83;35.65;99628.69;6972825;28;20565;-86
2023/09/03 15:05:13;;;;;;;1.60;1.50;;;;;;;31.02;36.22;99613.38;6971744;28;20377;-83
2023/09/03 15:08:35;;;;;;;1.83;1.20;;;;;;;29.94;37.52;99615.69;6974851;28;20266;-86
2023/09/03 15:11:56;;;;;;;1.47;1.30;;;;;;;30.17;36.36;99618.28;6973469;28;20297;-83
2023/09/03 15:15:18;;;;;;;1.50;1.40;;;;;;;30.38;36.52;99574.09;6973846;28;20317;-85
2023/09/03 15:18:41;;;;;;;1.43;1.30;;;;;;;31.07;36.46;99627.19;6972500;28;20216;-84
2023/09/03 15:22:03;;;;;;;2.07;1.60;;;;;;;30.53;36.53;99548.66;6973301;28;20237;-84
2023/09/03 15:25:25;;;;;;;1.70;1.60;;;;;;;31.06;36.17;99636.69;6972764;28;20322;-84
2023/09/03 15:28:46;;;;;;;1.50;1.40;;;;;;;30.95;36.34;99635.31;6968435;28;20690;-83
2023/09/03 15:32:08;;;;;;;2.47;1.63;;;;;;;31.07;36.31;99640.31;6973835;28;20262;-85
2023/09/03 15:35:31;;;;;;;1.67;1.57;;;;;;;30.49;36.47;99643.09;6972882;28;20268;-85
2023/09/03 15:38:53;;;;;;;1.50;1.40;;;;;;;30.46;36.62;99629.84;6967206;28;20239;-85
2023/09/03 15:42:15;;;;;;;1.90;1.63;;;;;;;30.24;37.38;99652.06;6972229;28;20709;-85
2023/09/03 15:45:39;;;;;;;1.67;1.57;;;;;;;30.93;36.23;99653.47;6956810;28;20320;-86
2023/09/03 15:49:05;;;;;;;4.13;3.73;;;;;;;30.34;36.91;99637.09;6970845;28;20241;-86
2023/09/03 15:52:28;;;;;;;8.93;6.70;;;;;;;30.53;36.58;99649.69;6979060;28;20216;-85
2023/09/03 15:55:50;;;;;;;2.67;1.77;;;;;;;30.42;36.82;99650.28;7000373;28;20250;-86